KMHR

Sacramento Mather Airport

Sacramento, California, USA
METAR KMHR 220145Z 21013KT 10SM FEW200 25/12 A2973
Observed Flight Rules
May-22 @ 01:45 UTC (56 minutes ago) Visual Flight Rules
Wind Visibility Clouds
210° at 13 knots 10 miles
  • Few at 20,000' AGL
Temperatures Readings
Current 25°C / 77°F
Dewpoint 12°C / 54°F
Humidity 44%
Altimeter 29.73" Hg
Pressure 1007 hPa
Elevation 29
METAR KMHR 220145Z 21013KT 10SM FEW200 25/12 A2973
Observed Flight Rules
May-22 @ 01:45 UTC
(56 minutes ago)
VFR
Wind Visibility
210° at 13 knots 10 miles
Clouds
  • Few at 20,000' AGL
Temperature Dewpoint
25°C / 77°F 12°C / 54°F
Humidity Altimeter Pressure
44% 29.73" Hg 1007 hPa